PWSweather.com
Personal Weather Stations
Station Observations
ERMELO
Centre, ErmeloNL

CentreErmeloNL

Lat: 52.2986655, Lon: 5.6296194

Elevation: 41

Station Type: Oregon WMR200

Latest ConditionsUpdated 6:15:16 PM GMT+01:01 Tuesday, Mar 26, 2019
Currently Today's Max Today's Min Today's Average
Temperature 48.0°F8.9°C 50.5°F10.3°C 38.5°F3.6°C 45.4°F7.4°C
Dew Point 23.0°F-5.0°C 33.5°F0.8°C 19.7°F-6.8°C 23.5°F-4.7°C
Winds 4.6 mph WNW7.4 kmh WNW 8.7 mph -14.0 kmh - - 4.8 mph 7.7 kmh
Wind Gusts 6.9 mph11.1 kmh 15.7 mph25.3 kmh - -
Humidity 37% 69% 30% 43%
Pressure 30.42 in1030.1 mb 30.48 in1032.2 mb 30.42 in1030.1 mb -
Hour Temp Dew Point Humidity Winds Wind Gusts Pressure Precip Precip Rate Daily Precip Total
06:15 PM 48.0°F8.9°C 23.0°F-5.0°C 37% 4.6 mph WNW7.4 kmh WNW 6.9 mph11.1 kmh 30.42 in1030.1 mb 0.00 in0.0 mm 0.00 in0.0 mm 0.00 in0.0 mm
06:00 PM 48.6°F9.2°C 22.8°F-5.1°C 36% 4.9 mph WNW7.9 kmh WNW 7.6 mph12.2 kmh 30.42 in1030.1 mb 0.00 in0.0 mm 0.00 in0.0 mm 0.00 in0.0 mm
05:45 PM 48.9°F9.4°C 21.0°F-6.1°C 33% 5.8 mph WNW9.3 kmh WNW 8.1 mph13.0 kmh 30.42 in1030.1 mb 0.00 in0.0 mm 0.00 in0.0 mm 0.00 in0.0 mm
05:30 PM 49.5°F9.7°C 20.8°F-6.2°C 32% 6.0 mph WNW9.7 kmh WNW 10.7 mph17.2 kmh 30.42 in1030.1 mb 0.00 in0.0 mm 0.00 in0.0 mm 0.00 in0.0 mm
05:15 PM 49.6°F9.8°C 20.9°F-6.2°C 32% 5.8 mph NW9.3 kmh NW 9.8 mph15.8 kmh 30.42 in1030.1 mb 0.00 in0.0 mm 0.00 in0.0 mm 0.00 in0.0 mm
05:00 PM 49.6°F9.8°C 20.9°F-6.2°C 32% 5.7 mph WNW9.2 kmh WNW 9.8 mph15.8 kmh 30.42 in1030.1 mb 0.00 in0.0 mm 0.00 in0.0 mm 0.00 in0.0 mm
04:45 PM 49.8°F9.9°C 20.4°F-6.4°C 31% 5.8 mph NW9.3 kmh NW 10.5 mph16.9 kmh 30.42 in1030.1 mb 0.00 in0.0 mm 0.00 in0.0 mm 0.00 in0.0 mm
04:30 PM 50.0°F10.0°C 19.7°F-6.8°C 30% 6.4 mph WNW10.3 kmh WNW 11.0 mph17.7 kmh 30.42 in1030.1 mb 0.00 in0.0 mm 0.00 in0.0 mm 0.00 in0.0 mm
04:15 PM 50.4°F10.2°C 20.1°F-6.6°C 30% 3.8 mph NW6.1 kmh NW 6.3 mph10.1 kmh 30.45 in1031.2 mb 0.00 in0.0 mm 0.00 in0.0 mm 0.00 in0.0 mm
04:00 PM 50.4°F10.2°C 20.1°F-6.6°C 30% 6.0 mph WNW9.7 kmh WNW 9.6 mph15.4 kmh 30.42 in1030.1 mb 0.00 in0.0 mm 0.00 in0.0 mm 0.00 in0.0 mm
03:45 PM 50.0°F10.0°C 19.7°F-6.8°C 30% 5.0 mph NW8.0 kmh NW 10.5 mph16.9 kmh 30.42 in1030.1 mb 0.00 in0.0 mm 0.00 in0.0 mm 0.00 in0.0 mm
03:30 PM 50.5°F10.3°C 20.2°F-6.6°C 30% 5.9 mph NW9.5 kmh NW 10.5 mph16.9 kmh 30.42 in1030.1 mb 0.00 in0.0 mm 0.00 in0.0 mm 0.00 in0.0 mm
03:15 PM 50.5°F10.3°C 21.7°F-5.7°C 32% 4.3 mph NW6.9 kmh NW 8.1 mph13.0 kmh 30.42 in1030.1 mb 0.00 in0.0 mm 0.00 in0.0 mm 0.00 in0.0 mm
03:00 PM 50.2°F10.1°C 20.7°F-6.3°C 31% 5.9 mph NW9.5 kmh NW 11.4 mph18.3 kmh 30.45 in1031.2 mb 0.00 in0.0 mm 0.00 in0.0 mm 0.00 in0.0 mm
02:45 PM 50.5°F10.3°C 21.0°F-6.1°C 31% 5.6 mph NW9.0 kmh NW 9.8 mph15.8 kmh 30.45 in1031.2 mb 0.00 in0.0 mm 0.00 in0.0 mm 0.00 in0.0 mm
02:30 PM 49.8°F9.9°C 20.4°F-6.4°C 31% 6.5 mph NW10.5 kmh NW 10.5 mph16.9 kmh 30.45 in1031.2 mb 0.00 in0.0 mm 0.00 in0.0 mm 0.00 in0.0 mm
02:15 PM 49.6°F9.8°C 20.9°F-6.2°C 32% 5.3 mph NW8.5 kmh NW 8.7 mph14.0 kmh 30.45 in1031.2 mb 0.00 in0.0 mm 0.00 in0.0 mm 0.00 in0.0 mm
02:00 PM 49.6°F9.8°C 21.7°F-5.7°C 33% 5.1 mph WNW8.2 kmh WNW 9.8 mph15.8 kmh 30.45 in1031.2 mb 0.00 in0.0 mm 0.00 in0.0 mm 0.00 in0.0 mm
01:45 PM 49.3°F9.6°C 20.6°F-6.3°C 32% 6.2 mph NW10.0 kmh NW 10.7 mph17.2 kmh 30.45 in1031.2 mb 0.00 in0.0 mm 0.00 in0.0 mm 0.00 in0.0 mm
01:30 PM 48.9°F9.4°C 22.4°F-5.3°C 35% 7.6 mph NW12.2 kmh NW 15.2 mph24.5 kmh 30.45 in1031.2 mb 0.00 in0.0 mm 0.00 in0.0 mm 0.00 in0.0 mm
01:15 PM 48.7°F9.3°C 22.3°F-5.4°C 35% 7.8 mph NW12.6 kmh NW 12.8 mph20.6 kmh 30.45 in1031.2 mb 0.00 in0.0 mm 0.00 in0.0 mm 0.00 in0.0 mm
01:00 PM 48.6°F9.2°C 22.1°F-5.5°C 35% 8.0 mph NW12.9 kmh NW 13.0 mph20.9 kmh 30.45 in1031.2 mb 0.00 in0.0 mm 0.00 in0.0 mm 0.00 in0.0 mm
12:45 PM 49.3°F9.6°C 22.1°F-5.5°C 34% 6.8 mph WNW10.9 kmh WNW 13.2 mph21.2 kmh 30.48 in1032.2 mb 0.00 in0.0 mm 0.00 in0.0 mm 0.00 in0.0 mm
12:30 PM 49.1°F9.5°C 21.2°F-6.0°C 33% 7.7 mph NW12.4 kmh NW 14.1 mph22.7 kmh 30.45 in1031.2 mb 0.00 in0.0 mm 0.00 in0.0 mm 0.00 in0.0 mm
12:15 PM 49.1°F9.5°C 20.5°F-6.4°C 32% 6.2 mph NW10.0 kmh NW 11.4 mph18.3 kmh 30.45 in1031.2 mb 0.00 in0.0 mm 0.00 in0.0 mm 0.00 in0.0 mm
12:00 PM 49.3°F9.6°C 19.9°F-6.7°C 31% 8.7 mph NW14.0 kmh NW 14.5 mph23.3 kmh 30.48 in1032.2 mb 0.00 in0.0 mm 0.00 in0.0 mm 0.00 in0.0 mm
11:45 AM 48.9°F9.4°C 21.0°F-6.1°C 33% 7.6 mph NW12.2 kmh NW 12.3 mph19.8 kmh 30.48 in1032.2 mb 0.00 in0.0 mm 0.00 in0.0 mm 0.00 in0.0 mm
11:30 AM 48.9°F9.4°C 22.4°F-5.3°C 35% 7.9 mph NW12.7 kmh NW 12.3 mph19.8 kmh 30.48 in1032.2 mb 0.00 in0.0 mm 0.00 in0.0 mm 0.00 in0.0 mm
11:15 AM 48.9°F9.4°C 23.8°F-4.6°C 37% 7.4 mph WNW11.9 kmh WNW 12.8 mph20.6 kmh 30.48 in1032.2 mb 0.00 in0.0 mm 0.00 in0.0 mm 0.00 in0.0 mm
11:00 AM 48.7°F9.3°C 23.6°F-4.7°C 37% 4.5 mph NW7.2 kmh NW 10.3 mph16.6 kmh 30.48 in1032.2 mb 0.00 in0.0 mm 0.00 in0.0 mm 0.00 in0.0 mm
10:45 AM 47.8°F8.8°C 23.4°F-4.8°C 38% 6.5 mph NW10.5 kmh NW 10.7 mph17.2 kmh 30.48 in1032.2 mb 0.00 in0.0 mm 0.00 in0.0 mm 0.00 in0.0 mm
10:30 AM 46.8°F8.2°C 24.3°F-4.3°C 41% 6.6 mph NW10.6 kmh NW 12.1 mph19.5 kmh 30.48 in1032.2 mb 0.00 in0.0 mm 0.00 in0.0 mm 0.00 in0.0 mm
10:15 AM 47.1°F8.4°C 24.6°F-4.1°C 41% 7.2 mph NW11.6 kmh NW 15.7 mph25.3 kmh 30.45 in1031.2 mb 0.00 in0.0 mm 0.00 in0.0 mm 0.00 in0.0 mm
10:00 AM 46.6°F8.1°C 25.3°F-3.7°C 43% 7.9 mph WNW12.7 kmh WNW 14.3 mph23.0 kmh 30.45 in1031.2 mb 0.00 in0.0 mm 0.00 in0.0 mm 0.00 in0.0 mm
09:45 AM 46.4°F8.0°C 26.7°F-2.9°C 46% 7.0 mph WNW11.3 kmh WNW 12.3 mph19.8 kmh 30.45 in1031.2 mb 0.00 in0.0 mm 0.00 in0.0 mm 0.00 in0.0 mm
09:30 AM 46.2°F7.9°C 27.1°F-2.7°C 47% 8.0 mph NW12.9 kmh NW 13.2 mph21.2 kmh 30.45 in1031.2 mb 0.00 in0.0 mm 0.00 in0.0 mm 0.00 in0.0 mm
09:15 AM 46.8°F8.2°C 27.6°F-2.4°C 47% 7.7 mph NW12.4 kmh NW 13.4 mph21.6 kmh 30.45 in1031.2 mb 0.00 in0.0 mm 0.00 in0.0 mm 0.00 in0.0 mm
09:00 AM 46.6°F8.1°C 28.9°F-1.7°C 50% 5.6 mph NW9.0 kmh NW 10.5 mph16.9 kmh 30.45 in1031.2 mb 0.00 in0.0 mm 0.00 in0.0 mm 0.00 in0.0 mm
08:45 AM 45.5°F7.5°C 32.0°F0.0°C 59% 5.3 mph NW8.5 kmh NW 10.5 mph16.9 kmh 30.45 in1031.2 mb 0.00 in0.0 mm 0.00 in0.0 mm 0.00 in0.0 mm
08:30 AM 44.2°F6.8°C 32.0°F0.0°C 62% 4.2 mph WNW6.8 kmh WNW 7.4 mph11.9 kmh 30.45 in1031.2 mb 0.00 in0.0 mm 0.00 in0.0 mm 0.00 in0.0 mm
08:15 AM 43.5°F6.4°C 32.1°F0.1°C 64% 5.1 mph NW8.2 kmh NW 12.1 mph19.5 kmh 30.45 in1031.2 mb 0.00 in0.0 mm 0.00 in0.0 mm 0.00 in0.0 mm
08:00 AM 43.3°F6.3°C 33.5°F0.8°C 68% 4.6 mph WNW7.4 kmh WNW 7.6 mph12.2 kmh 30.45 in1031.2 mb 0.00 in0.0 mm 0.00 in0.0 mm 0.00 in0.0 mm
07:45 AM 42.4°F5.8°C 33.0°F0.6°C 69% 4.3 mph W6.9 kmh W 6.5 mph10.5 kmh 30.45 in1031.2 mb 0.00 in0.0 mm 0.00 in0.0 mm 0.00 in0.0 mm
07:30 AM 41.0°F5.0°C 30.5°F-0.8°C 66% 2.9 mph W4.7 kmh W 5.6 mph9.0 kmh 30.45 in1031.2 mb 0.00 in0.0 mm 0.00 in0.0 mm 0.00 in0.0 mm
07:15 AM 40.3°F4.6°C 29.1°F-1.6°C 64% 2.3 mph W3.7 kmh W 4.3 mph6.9 kmh 30.45 in1031.2 mb 0.00 in0.0 mm 0.00 in0.0 mm 0.00 in0.0 mm
07:00 AM 39.6°F4.2°C 27.6°F-2.4°C 62% 2.4 mph WSW3.9 kmh WSW 4.3 mph6.9 kmh 30.45 in1031.2 mb 0.00 in0.0 mm 0.00 in0.0 mm 0.00 in0.0 mm
06:45 AM 39.4°F4.1°C 27.0°F-2.8°C 61% 2.5 mph W4.0 kmh W 4.5 mph7.2 kmh 30.45 in1031.2 mb 0.00 in0.0 mm 0.00 in0.0 mm 0.00 in0.0 mm
06:30 AM 39.0°F3.9°C 26.3°F-3.2°C 60% 2.6 mph W4.2 kmh W 4.7 mph7.6 kmh 30.45 in1031.2 mb 0.00 in0.0 mm 0.00 in0.0 mm 0.00 in0.0 mm
06:15 AM 38.8°F3.8°C 25.7°F-3.5°C 59% 2.4 mph W3.9 kmh W 3.8 mph6.1 kmh 30.45 in1031.2 mb 0.00 in0.0 mm 0.00 in0.0 mm 0.00 in0.0 mm
06:00 AM 38.5°F3.6°C 24.6°F-4.1°C 57% 2.5 mph W4.0 kmh W 3.8 mph6.1 kmh 30.45 in1031.2 mb 0.00 in0.0 mm 0.00 in0.0 mm 0.00 in0.0 mm
05:45 AM 38.5°F3.6°C 24.1°F-4.4°C 56% 1.7 mph WSW2.7 kmh WSW 3.8 mph6.1 kmh 30.45 in1031.2 mb 0.00 in0.0 mm 0.00 in0.0 mm 0.00 in0.0 mm
05:30 AM 39.0°F3.9°C 24.2°F-4.3°C 55% 3.2 mph W5.1 kmh W 5.4 mph8.7 kmh 30.42 in1030.1 mb 0.00 in0.0 mm 0.00 in0.0 mm 0.00 in0.0 mm
05:15 AM 39.2°F4.0°C 23.5°F-4.7°C 53% 2.8 mph W4.5 kmh W 4.0 mph6.4 kmh 30.42 in1030.1 mb 0.00 in0.0 mm 0.00 in0.0 mm 0.00 in0.0 mm
05:00 AM 39.7°F4.3°C 23.5°F-4.7°C 52% 2.8 mph W4.5 kmh W 3.8 mph6.1 kmh 30.42 in1030.1 mb 0.00 in0.0 mm 0.00 in0.0 mm 0.00 in0.0 mm
04:45 AM 39.7°F4.3°C 22.1°F-5.5°C 49% 2.6 mph W4.2 kmh W 4.0 mph6.4 kmh 30.45 in1031.2 mb 0.00 in0.0 mm 0.00 in0.0 mm 0.00 in0.0 mm
04:30 AM 40.3°F4.6°C 22.1°F-5.5°C 48% 2.1 mph W3.4 kmh W 3.6 mph5.8 kmh 30.42 in1030.1 mb 0.00 in0.0 mm 0.00 in0.0 mm 0.00 in0.0 mm
04:15 AM 41.0°F5.0°C 21.8°F-5.7°C 46% 2.7 mph WNW4.3 kmh WNW 4.3 mph6.9 kmh 30.45 in1031.2 mb 0.00 in0.0 mm 0.00 in0.0 mm 0.00 in0.0 mm
04:00 AM 41.4°F5.2°C 21.1°F-6.1°C 44% 1.5 mph NW2.4 kmh NW 3.1 mph5.0 kmh 30.45 in1031.2 mb 0.00 in0.0 mm 0.00 in0.0 mm 0.00 in0.0 mm
03:45 AM 42.1°F5.6°C 21.7°F-5.7°C 44% 1.9 mph NNW3.1 kmh NNW 3.4 mph5.5 kmh 30.45 in1031.2 mb 0.00 in0.0 mm 0.00 in0.0 mm 0.00 in0.0 mm
03:30 AM 42.3°F5.7°C 21.9°F-5.6°C 44% 2.1 mph NNW3.4 kmh NNW 4.9 mph7.9 kmh 30.45 in1031.2 mb 0.00 in0.0 mm 0.00 in0.0 mm 0.00 in0.0 mm
03:15 AM 42.1°F5.6°C 21.2°F-6.0°C 43% 1.4 mph NNW2.3 kmh NNW 3.4 mph5.5 kmh 30.45 in1031.2 mb 0.00 in0.0 mm 0.00 in0.0 mm 0.00 in0.0 mm
03:00 AM 42.8°F6.0°C 21.3°F-5.9°C 42% 2.5 mph N4.0 kmh N 4.9 mph7.9 kmh 30.45 in1031.2 mb 0.00 in0.0 mm 0.00 in0.0 mm 0.00 in0.0 mm
02:45 AM 42.8°F6.0°C 21.3°F-5.9°C 42% 2.6 mph NW4.2 kmh NW 3.8 mph6.1 kmh 30.42 in1030.1 mb 0.00 in0.0 mm 0.00 in0.0 mm 0.00 in0.0 mm
02:30 AM 42.6°F5.9°C 20.5°F-6.4°C 41% 3.2 mph NNW5.1 kmh NNW 4.3 mph6.9 kmh 30.45 in1031.2 mb 0.00 in0.0 mm 0.00 in0.0 mm 0.00 in0.0 mm
02:15 AM 43.0°F6.1°C 20.9°F-6.2°C 41% 3.5 mph N5.6 kmh N 5.6 mph9.0 kmh 30.45 in1031.2 mb 0.00 in0.0 mm 0.00 in0.0 mm 0.00 in0.0 mm
02:00 AM 43.5°F6.4°C 21.9°F-5.6°C 42% 5.0 mph NW8.0 kmh NW 10.5 mph16.9 kmh 30.45 in1031.2 mb 0.00 in0.0 mm 0.00 in0.0 mm 0.00 in0.0 mm
01:45 AM 43.5°F6.4°C 23.0°F-5.0°C 44% 3.1 mph NNW5.0 kmh NNW 6.3 mph10.1 kmh 30.45 in1031.2 mb 0.00 in0.0 mm 0.00 in0.0 mm 0.00 in0.0 mm
01:30 AM 43.5°F6.4°C 23.6°F-4.7°C 45% 3.8 mph NNW6.1 kmh NNW 6.0 mph9.7 kmh 30.45 in1031.2 mb 0.00 in0.0 mm 0.00 in0.0 mm 0.00 in0.0 mm
01:15 AM 43.5°F6.4°C 25.1°F-3.8°C 48% 3.9 mph N6.3 kmh N 6.5 mph10.5 kmh 30.45 in1031.2 mb 0.00 in0.0 mm 0.00 in0.0 mm 0.00 in0.0 mm
01:00 AM 43.5°F6.4°C 25.1°F-3.8°C 48% 4.5 mph NNW7.2 kmh NNW 10.7 mph17.2 kmh 30.45 in1031.2 mb 0.00 in0.0 mm 0.00 in0.0 mm 0.00 in0.0 mm
12:45 AM 43.2°F6.2°C 24.8°F-4.0°C 48% 4.7 mph NNW7.6 kmh NNW 8.1 mph13.0 kmh 30.45 in1031.2 mb 0.00 in0.0 mm 0.00 in0.0 mm 0.00 in0.0 mm
12:30 AM 43.0°F6.1°C 23.1°F-4.9°C 45% 3.4 mph NW5.5 kmh NW 7.2 mph11.6 kmh 30.42 in1030.1 mb 0.00 in0.0 mm 0.00 in0.0 mm 0.00 in0.0 mm
12:15 AM 42.6°F5.9°C 22.2°F-5.4°C 44% 2.7 mph NNW4.3 kmh NNW 4.3 mph6.9 kmh 30.42 in1030.1 mb 0.00 in0.0 mm 0.00 in0.0 mm 0.00 in0.0 mm
12:00 AM 42.6°F5.9°C 22.2°F-5.4°C 44% 2.3 mph NW3.7 kmh NW 3.6 mph5.8 kmh 30.42 in1030.1 mb 0.00 in0.0 mm 0.00 in0.0 mm 0.00 in0.0 mm